sensor_id;sensor_type;location;lat;lon;timestamp;pressure;altitude;pressure_sealevel;temperature;humidity
48041;BME280;33815;48.386;11.738;2024-03-06T00:01:04;96352.56;;;4.38;100.00
48041;BME280;33815;48.386;11.738;2024-03-06T00:03:30;96367.94;;;4.51;100.00
48041;BME280;33815;48.386;11.738;2024-03-06T00:05:55;96351.38;;;4.31;100.00
48041;BME280;33815;48.386;11.738;2024-03-06T00:08:20;96369.66;;;4.39;100.00
48041;BME280;33815;48.386;11.738;2024-03-06T00:10:45;96374.63;;;4.42;100.00
48041;BME280;33815;48.386;11.738;2024-03-06T00:13:12;96387.03;;;4.48;100.00
48041;BME280;33815;48.386;11.738;2024-03-06T00:15:37;96387.72;;;4.50;100.00
48041;BME280;33815;48.386;11.738;2024-03-06T00:18:02;96397.50;;;4.46;100.00
48041;BME280;33815;48.386;11.738;2024-03-06T00:20:29;96398.91;;;4.51;100.00
48041;BME280;33815;48.386;11.738;2024-03-06T00:22:54;96383.75;;;4.46;100.00
48041;BME280;33815;48.386;11.738;2024-03-06T00:25:19;96387.84;;;4.60;100.00
48041;BME280;33815;48.386;11.738;2024-03-06T00:27:45;96398.91;;;4.62;100.00
48041;BME280;33815;48.386;11.738;2024-03-06T00:30:10;96376.97;;;4.45;100.00
48041;BME280;33815;48.386;11.738;2024-03-06T00:32:36;96396.19;;;4.52;100.00
48041;BME280;33815;48.386;11.738;2024-03-06T00:35:01;96400.19;;;4.56;100.00
48041;BME280;33815;48.386;11.738;2024-03-06T00:37:26;96401.94;;;4.56;100.00
48041;BME280;33815;48.386;11.738;2024-03-06T00:39:51;96379.41;;;4.58;100.00
48041;BME280;33815;48.386;11.738;2024-03-06T00:42:17;96403.69;;;4.67;100.00
48041;BME280;33815;48.386;11.738;2024-03-06T00:44:42;96390.69;;;4.57;100.00
48041;BME280;33815;48.386;11.738;2024-03-06T00:47:07;96401.97;;;4.67;100.00
48041;BME280;33815;48.386;11.738;2024-03-06T00:49:33;96402.41;;;4.61;100.00
48041;BME280;33815;48.386;11.738;2024-03-06T00:51:58;96394.78;;;4.59;100.00
48041;BME280;33815;48.386;11.738;2024-03-06T00:54:23;96398.09;;;4.61;100.00
48041;BME280;33815;48.386;11.738;2024-03-06T00:56:48;96396.19;;;4.52;100.00
48041;BME280;33815;48.386;11.738;2024-03-06T00:59:14;96383.53;;;4.49;100.00
48041;BME280;33815;48.386;11.738;2024-03-06T01:01:39;96380.22;;;4.47;100.00
48041;BME280;33815;48.386;11.738;2024-03-06T01:04:04;96392.69;;;4.65;100.00
48041;BME280;33815;48.386;11.738;2024-03-06T01:06:29;96380.81;;;4.62;100.00
48041;BME280;33815;48.386;11.738;2024-03-06T01:08:55;96383.16;;;4.65;100.00
48041;BME280;33815;48.386;11.738;2024-03-06T01:11:22;96382.34;;;4.65;100.00
48041;BME280;33815;48.386;11.738;2024-03-06T01:13:47;96386.81;;;4.62;100.00
48041;BME280;33815;48.386;11.738;2024-03-06T01:16:12;96391.50;;;4.69;100.00
48041;BME280;33815;48.386;11.738;2024-03-06T01:18:38;96365.47;;;4.49;100.00
48041;BME280;33815;48.386;11.738;2024-03-06T01:21:03;96366.28;;;4.50;100.00
48041;BME280;33815;48.386;11.738;2024-03-06T01:23:28;96378.69;;;4.56;100.00
48041;BME280;33815;48.386;11.738;2024-03-06T01:25:54;96383.53;;;4.60;100.00
48041;BME280;33815;48.386;11.738;2024-03-06T01:28:20;96387.41;;;4.55;100.00
48041;BME280;33815;48.386;11.738;2024-03-06T01:30:45;96362.03;;;4.49;100.00
48041;BME280;33815;48.386;11.738;2024-03-06T01:33:11;96377.44;;;4.61;100.00
48041;BME280;33815;48.386;11.738;2024-03-06T01:35:36;96355.97;;;4.38;100.00
48041;BME280;33815;48.386;11.738;2024-03-06T01:38:01;96370.84;;;4.46;100.00
48041;BME280;33815;48.386;11.738;2024-03-06T01:40:26;96388.22;;;4.55;100.00
48041;BME280;33815;48.386;11.738;2024-03-06T01:42:52;96368.84;;;4.38;100.00
48041;BME280;33815;48.386;11.738;2024-03-06T01:45:17;96377.53;;;4.49;100.00
48041;BME280;33815;48.386;11.738;2024-03-06T01:47:43;96381.88;;;4.48;100.00
48041;BME280;33815;48.386;11.738;2024-03-06T01:50:09;96371.56;;;4.59;100.00
48041;BME280;33815;48.386;11.738;2024-03-06T01:52:35;96374.13;;;4.48;100.00
48041;BME280;33815;48.386;11.738;2024-03-06T01:55:01;96359.34;;;4.50;100.00
48041;BME280;33815;48.386;11.738;2024-03-06T01:57:27;96377.88;;;4.55;100.00
48041;BME280;33815;48.386;11.738;2024-03-06T01:59:53;96356.88;;;4.37;100.00
48041;BME280;33815;48.386;11.738;2024-03-06T02:02:20;96368.97;;;4.48;100.00
48041;BME280;33815;48.386;11.738;2024-03-06T02:04:46;96358.06;;;4.44;100.00
48041;BME280;33815;48.386;11.738;2024-03-06T02:07:12;96357.50;;;4.41;100.00
48041;BME280;33815;48.386;11.738;2024-03-06T02:09:39;96374.63;;;4.53;100.00
48041;BME280;33815;48.386;11.738;2024-03-06T02:12:05;96370.84;;;4.46;100.00
48041;BME280;33815;48.386;11.738;2024-03-06T02:14:33;96374.13;;;4.48;100.00
48041;BME280;33815;48.386;11.738;2024-03-06T02:16:58;96340.25;;;4.30;100.00
48041;BME280;33815;48.386;11.738;2024-03-06T02:19:24;96367.56;;;4.44;100.00
48041;BME280;33815;48.386;11.738;2024-03-06T02:21:51;96352.31;;;4.41;100.00
48041;BME280;33815;48.386;11.738;2024-03-06T02:24:17;96356.44;;;4.43;100.00
48041;BME280;33815;48.386;11.738;2024-03-06T02:26:42;96351.59;;;4.39;100.00
48041;BME280;33815;48.386;11.738;2024-03-06T02:29:08;96334.16;;;4.42;100.00
48041;BME280;33815;48.386;11.738;2024-03-06T02:31:34;96353.25;;;4.40;100.00
48041;BME280;33815;48.386;11.738;2024-03-06T02:34:00;96330.72;;;4.19;100.00
48041;BME280;33815;48.386;11.738;2024-03-06T02:36:29;96348.56;;;4.45;100.00
48041;BME280;33815;48.386;11.738;2024-03-06T02:38:54;96328.63;;;4.36;100.00
48041;BME280;33815;48.386;11.738;2024-03-06T02:41:20;96327.22;;;4.32;100.00
48041;BME280;33815;48.386;11.738;2024-03-06T02:43:45;96349.03;;;4.50;100.00
48041;BME280;33815;48.386;11.738;2024-03-06T02:46:10;96340.13;;;4.43;100.00
48041;BME280;33815;48.386;11.738;2024-03-06T02:48:36;96342.25;;;4.38;100.00
48041;BME280;33815;48.386;11.738;2024-03-06T02:51:01;96350.09;;;4.36;100.00
48041;BME280;33815;48.386;11.738;2024-03-06T02:53:26;96333.91;;;4.34;100.00
48041;BME280;33815;48.386;11.738;2024-03-06T02:55:52;96345.63;;;4.38;100.00
48041;BME280;33815;48.386;11.738;2024-03-06T02:58:18;96348.47;;;4.35;100.00
48041;BME280;33815;48.386;11.738;2024-03-06T03:00:43;96332.63;;;4.17;100.00
48041;BME280;33815;48.386;11.738;2024-03-06T03:03:09;96360.44;;;4.36;100.00
48041;BME280;33815;48.386;11.738;2024-03-06T03:05:35;96348.34;;;4.25;100.00
48041;BME280;33815;48.386;11.738;2024-03-06T03:08:01;96357.00;;;4.24;100.00
48041;BME280;33815;48.386;11.738;2024-03-06T03:10:26;96362.06;;;4.37;100.00
48041;BME280;33815;48.386;11.738;2024-03-06T03:12:52;96369.09;;;4.35;100.00
48041;BME280;33815;48.386;11.738;2024-03-06T03:15:18;96368.63;;;4.30;100.00
48041;BME280;33815;48.386;11.738;2024-03-06T03:17:43;96365.22;;;4.29;100.00
48041;BME280;33815;48.386;11.738;2024-03-06T03:20:09;96363.94;;;4.35;100.00
48041;BME280;33815;48.386;11.738;2024-03-06T03:22:40;96360.31;;;4.26;100.00
48041;BME280;33815;48.386;11.738;2024-03-06T03:25:13;96367.09;;;4.50;100.00
48041;BME280;33815;48.386;11.738;2024-03-06T03:27:39;96350.44;;;4.43;100.00
48041;BME280;33815;48.386;11.738;2024-03-06T03:30:07;96352.09;;;4.33;100.00
48041;BME280;33815;48.386;11.738;2024-03-06T03:32:33;96361.94;;;4.50;100.00
48041;BME280;33815;48.386;11.738;2024-03-06T03:34:59;96359.34;;;4.39;100.00
48041;BME280;33815;48.386;11.738;2024-03-06T03:37:24;96366.84;;;4.31;100.00
48041;BME280;33815;48.386;11.738;2024-03-06T03:39:49;96375.31;;;4.33;100.00
48041;BME280;33815;48.386;11.738;2024-03-06T03:42:15;96358.91;;;4.34;100.00
48041;BME280;33815;48.386;11.738;2024-03-06T03:44:40;96345.28;;;4.32;100.00
48041;BME280;33815;48.386;11.738;2024-03-06T03:47:05;96366.97;;;4.29;100.00
48041;BME280;33815;48.386;11.738;2024-03-06T03:49:31;96370.97;;;4.33;100.00
48041;BME280;33815;48.386;11.738;2024-03-06T03:51:56;96373.91;;;4.40;100.00
48041;BME280;33815;48.386;11.738;2024-03-06T03:54:21;96375.66;;;4.39;100.00
48041;BME280;33815;48.386;11.738;2024-03-06T03:56:47;96380.22;;;4.36;100.00
48041;BME280;33815;48.386;11.738;2024-03-06T03:59:13;96375.06;;;4.36;100.00
48041;BME280;33815;48.386;11.738;2024-03-06T04:01:38;96376.25;;;4.43;100.00
48041;BME280;33815;48.386;11.738;2024-03-06T04:04:03;96352.56;;;4.38;100.00
48041;BME280;33815;48.386;11.738;2024-03-06T04:06:29;96377.31;;;4.63;100.00
48041;BME280;33815;48.386;11.738;2024-03-06T04:08:54;96383.66;;;4.48;100.00
48041;BME280;33815;48.386;11.738;2024-03-06T04:11:19;96374.38;;;4.45;100.00
48041;BME280;33815;48.386;11.738;2024-03-06T04:13:45;96368.75;;;4.40;100.00
48041;BME280;33815;48.386;11.738;2024-03-06T04:16:16;96379.78;;;4.42;100.00
48041;BME280;33815;48.386;11.738;2024-03-06T04:18:41;96381.06;;;4.36;100.00
48041;BME280;33815;48.386;11.738;2024-03-06T04:21:07;96387.16;;;4.46;100.00
48041;BME280;33815;48.386;11.738;2024-03-06T04:23:33;96395.03;;;4.45;100.00
48041;BME280;33815;48.386;11.738;2024-03-06T04:25:59;96385.16;;;4.39;100.00
48041;BME280;33815;48.386;11.738;2024-03-06T04:28:25;96376.72;;;4.37;100.00
48041;BME280;33815;48.386;11.738;2024-03-06T04:30:50;96378.00;;;4.31;100.00
48041;BME280;33815;48.386;11.738;2024-03-06T04:33:15;96381.16;;;4.23;100.00
48041;BME280;33815;48.386;11.738;2024-03-06T04:35:41;96384.69;;;4.22;100.00
48041;BME280;33815;48.386;11.738;2024-03-06T04:38:06;96394.06;;;4.23;100.00
48041;BME280;33815;48.386;11.738;2024-03-06T04:40:32;96397.38;;;4.37;100.00
48041;BME280;33815;48.386;11.738;2024-03-06T04:42:58;96396.19;;;4.41;100.00
48041;BME280;33815;48.386;11.738;2024-03-06T04:45:23;96385.16;;;4.27;100.00
48041;BME280;33815;48.386;11.738;2024-03-06T04:47:49;96400.06;;;4.35;100.00
48041;BME280;33815;48.386;11.738;2024-03-06T04:50:14;96389.25;;;4.19;100.00
48041;BME280;33815;48.386;11.738;2024-03-06T04:52:40;96411.44;;;4.33;100.00
48041;BME280;33815;48.386;11.738;2024-03-06T04:55:09;96416.81;;;4.29;100.00
48041;BME280;33815;48.386;11.738;2024-03-06T04:57:36;96413.53;;;4.27;100.00
48041;BME280;33815;48.386;11.738;2024-03-06T05:00:02;96410.69;;;4.19;100.00
48041;BME280;33815;48.386;11.738;2024-03-06T05:02:31;96419.97;;;4.33;100.00
48041;BME280;33815;48.386;11.738;2024-03-06T05:04:59;96428.91;;;4.40;100.00
48041;BME280;33815;48.386;11.738;2024-03-06T05:07:26;96432.88;;;4.33;100.00
48041;BME280;33815;48.386;11.738;2024-03-06T05:09:51;96422.69;;;4.32;100.00
48041;BME280;33815;48.386;11.738;2024-03-06T05:12:16;96400.97;;;4.23;100.00
48041;BME280;33815;48.386;11.738;2024-03-06T05:14:41;96428.31;;;4.37;100.00
48041;BME280;33815;48.386;11.738;2024-03-06T05:17:07;96427.16;;;4.29;100.00
48041;BME280;33815;48.386;11.738;2024-03-06T05:19:34;96416.00;;;4.29;100.00
48041;BME280;33815;48.386;11.738;2024-03-06T05:21:59;96436.63;;;4.40;100.00
48041;BME280;33815;48.386;11.738;2024-03-06T05:24:25;96435.47;;;4.44;100.00
48041;BME280;33815;48.386;11.738;2024-03-06T05:26:50;96430.53;;;4.30;100.00
48041;BME280;33815;48.386;11.738;2024-03-06T05:29:16;96416.09;;;4.16;100.00
48041;BME280;33815;48.386;11.738;2024-03-06T05:31:41;96396.72;;;3.99;100.00
48041;BME280;33815;48.386;11.738;2024-03-06T05:34:06;96433.22;;;4.17;100.00
48041;BME280;33815;48.386;11.738;2024-03-06T05:36:32;96445.44;;;4.26;100.00
48041;BME280;33815;48.386;11.738;2024-03-06T05:38:57;96451.78;;;4.34;100.00
48041;BME280;33815;48.386;11.738;2024-03-06T05:41:22;96444.50;;;4.27;100.00
48041;BME280;33815;48.386;11.738;2024-03-06T05:43:47;96452.22;;;4.27;100.00
48041;BME280;33815;48.386;11.738;2024-03-06T05:46:13;96453.38;;;4.23;100.00
48041;BME280;33815;48.386;11.738;2024-03-06T05:48:38;96416.88;;;4.05;100.00
48041;BME280;33815;48.386;11.738;2024-03-06T05:51:03;96448.84;;;4.27;100.00
48041;BME280;33815;48.386;11.738;2024-03-06T05:53:28;96433.56;;;4.13;100.00
48041;BME280;33815;48.386;11.738;2024-03-06T05:55:54;96436.97;;;4.13;100.00
48041;BME280;33815;48.386;11.738;2024-03-06T05:58:19;96461.63;;;4.28;100.00
48041;BME280;33815;48.386;11.738;2024-03-06T06:00:45;96455.06;;;4.36;100.00
48041;BME280;33815;48.386;11.738;2024-03-06T06:03:10;96448.84;;;4.27;100.00
48041;BME280;33815;48.386;11.738;2024-03-06T06:05:38;96454.44;;;4.21;100.00
48041;BME280;33815;48.386;11.738;2024-03-06T06:08:05;96469.84;;;4.34;100.00
48041;BME280;33815;48.386;11.738;2024-03-06T06:10:30;96458.09;;;4.29;100.00
48041;BME280;33815;48.386;11.738;2024-03-06T06:12:55;96479.22;;;4.35;100.00
48041;BME280;33815;48.386;11.738;2024-03-06T06:15:21;96480.16;;;4.34;100.00
48041;BME280;33815;48.386;11.738;2024-03-06T06:17:46;96468.88;;;4.35;100.00
48041;BME280;33815;48.386;11.738;2024-03-06T06:20:11;96480.63;;;4.39;100.00
48041;BME280;33815;48.386;11.738;2024-03-06T06:22:40;96483.94;;;4.41;100.00
48041;BME280;33815;48.386;11.738;2024-03-06T06:25:06;96490.13;;;4.38;100.00
48041;BME280;33815;48.386;11.738;2024-03-06T06:27:32;96495.31;;;4.38;100.00
48041;BME280;33815;48.386;11.738;2024-03-06T06:29:58;96490.75;;;4.42;100.00
48041;BME280;33815;48.386;11.738;2024-03-06T06:32:23;96502.25;;;4.49;100.00
48041;BME280;33815;48.386;11.738;2024-03-06T06:34:48;96500.00;;;4.44;100.00
48041;BME280;33815;48.386;11.738;2024-03-06T06:37:14;96505.53;;;4.51;100.00
48041;BME280;33815;48.386;11.738;2024-03-06T06:39:40;96504.38;;;4.55;100.00
48041;BME280;33815;48.386;11.738;2024-03-06T06:42:05;96483.44;;;4.36;100.00
48041;BME280;33815;48.386;11.738;2024-03-06T06:44:30;96506.69;;;4.47;100.00
48041;BME280;33815;48.386;11.738;2024-03-06T06:46:56;96506.81;;;4.45;100.00
48041;BME280;33815;48.386;11.738;2024-03-06T06:49:21;96511.19;;;4.56;100.00
48041;BME280;33815;48.386;11.738;2024-03-06T06:51:46;96510.19;;;4.46;100.00
48041;BME280;33815;48.386;11.738;2024-03-06T06:54:13;96516.34;;;4.56;100.00
48041;BME280;33815;48.386;11.738;2024-03-06T06:56:38;96525.94;;;4.54;100.00
48041;BME280;33815;48.386;11.738;2024-03-06T06:59:03;96492.84;;;4.37;100.00
48041;BME280;33815;48.386;11.738;2024-03-06T07:01:29;96521.50;;;4.56;100.00
48041;BME280;33815;48.386;11.738;2024-03-06T07:03:54;96522.91;;;4.60;100.00
48041;BME280;33815;48.386;11.738;2024-03-06T07:06:19;96529.25;;;4.56;100.00
48041;BME280;33815;48.386;11.738;2024-03-06T07:08:44;96519.28;;;4.52;100.00
48041;BME280;33815;48.386;11.738;2024-03-06T07:11:10;96533.25;;;4.60;100.00
48041;BME280;33815;48.386;11.738;2024-03-06T07:13:36;96521.75;;;4.53;100.00
48041;BME280;33815;48.386;11.738;2024-03-06T07:16:02;96538.41;;;4.60;100.00
48041;BME280;33815;48.386;11.738;2024-03-06T07:18:29;96536.53;;;4.74;100.00
48041;BME280;33815;48.386;11.738;2024-03-06T07:20:54;96530.56;;;4.73;100.00
48041;BME280;33815;48.386;11.738;2024-03-06T07:23:19;96531.38;;;4.74;100.00
48041;BME280;33815;48.386;11.738;2024-03-06T07:25:45;96530.31;;;4.76;100.00
48041;BME280;33815;48.386;11.738;2024-03-06T07:28:10;96542.19;;;4.79;100.00
48041;BME280;33815;48.386;11.738;2024-03-06T07:30:35;96531.38;;;4.74;100.00
48041;BME280;33815;48.386;11.738;2024-03-06T07:33:01;96534.09;;;4.84;100.00
48041;BME280;33815;48.386;11.738;2024-03-06T07:35:26;96539.75;;;4.89;100.00
48041;BME280;33815;48.386;11.738;2024-03-06T07:37:51;96538.81;;;4.90;100.00
48041;BME280;33815;48.386;11.738;2024-03-06T07:40:17;96548.66;;;5.07;100.00
48041;BME280;33815;48.386;11.738;2024-03-06T07:42:42;96538.47;;;4.94;100.00
48041;BME280;33815;48.386;11.738;2024-03-06T07:45:07;96556.31;;;5.09;100.00
48041;BME280;33815;48.386;11.738;2024-03-06T07:47:34;96562.88;;;5.24;100.00
48041;BME280;33815;48.386;11.738;2024-03-06T07:49:59;96551.00;;;4.99;100.00
48041;BME280;33815;48.386;11.738;2024-03-06T07:52:24;96552.91;;;4.97;100.00
48041;BME280;33815;48.386;11.738;2024-03-06T07:54:50;96568.88;;;5.02;100.00
48041;BME280;33815;48.386;11.738;2024-03-06T07:57:15;96561.72;;;5.17;100.00
48041;BME280;33815;48.386;11.738;2024-03-06T07:59:40;96566.44;;;5.23;100.00
48041;BME280;33815;48.386;11.738;2024-03-06T08:02:05;96572.16;;;5.27;100.00
48041;BME280;33815;48.386;11.738;2024-03-06T08:04:31;96577.34;;;5.38;100.00
48041;BME280;33815;48.386;11.738;2024-03-06T08:06:57;96557.03;;;5.34;100.00
48041;BME280;33815;48.386;11.738;2024-03-06T08:09:22;96575.34;;;5.42;100.00
48041;BME280;33815;48.386;11.738;2024-03-06T08:11:48;96573.56;;;5.54;100.00
48041;BME280;33815;48.386;11.738;2024-03-06T08:14:14;96564.88;;;5.55;100.00
48041;BME280;33815;48.386;11.738;2024-03-06T08:16:40;96578.81;;;5.75;100.00
48041;BME280;33815;48.386;11.738;2024-03-06T08:19:05;96587.75;;;6.05;100.00
48041;BME280;33815;48.386;11.738;2024-03-06T08:21:31;96563.38;;;5.96;100.00
48041;BME280;33815;48.386;11.738;2024-03-06T08:23:56;96580.59;;;5.86;100.00
48041;BME280;33815;48.386;11.738;2024-03-06T08:26:22;96591.16;;;6.05;100.00
48041;BME280;33815;48.386;11.738;2024-03-06T08:28:48;96593.50;;;6.08;100.00
48041;BME280;33815;48.386;11.738;2024-03-06T08:31:14;96586.34;;;6.00;100.00
48041;BME280;33815;48.386;11.738;2024-03-06T08:33:39;96600.41;;;6.19;100.00
48041;BME280;33815;48.386;11.738;2024-03-06T08:36:04;96593.09;;;6.24;100.00
48041;BME280;33815;48.386;11.738;2024-03-06T08:38:30;96585.34;;;6.13;100.00
48041;BME280;33815;48.386;11.738;2024-03-06T08:40:55;96601.31;;;6.29;100.00
48041;BME280;33815;48.386;11.738;2024-03-06T08:43:20;96600.84;;;6.36;100.00
48041;BME280;33815;48.386;11.738;2024-03-06T08:45:46;96604.56;;;6.43;100.00
48041;BME280;33815;48.386;11.738;2024-03-06T08:48:11;96603.50;;;6.45;100.00
48041;BME280;33815;48.386;11.738;2024-03-06T08:50:38;96599.47;;;6.53;100.00
48041;BME280;33815;48.386;11.738;2024-03-06T08:53:04;96595.31;;;6.61;100.00
48041;BME280;33815;48.386;11.738;2024-03-06T08:55:29;96591.25;;;6.68;100.00
48041;BME280;33815;48.386;11.738;2024-03-06T08:57:55;96606.63;;;6.81;100.00
48041;BME280;33815;48.386;11.738;2024-03-06T09:00:20;96604.41;;;6.98;100.00
48041;BME280;33815;48.386;11.738;2024-03-06T09:02:45;96581.22;;;6.96;100.00
48041;BME280;33815;48.386;11.738;2024-03-06T09:05:11;96606.13;;;7.40;100.00
48041;BME280;33815;48.386;11.738;2024-03-06T09:07:38;96611.88;;;7.43;100.00
48041;BME280;33815;48.386;11.738;2024-03-06T09:10:09;96608.91;;;7.48;100.00
48041;BME280;33815;48.386;11.738;2024-03-06T09:12:35;96599.50;;;7.57;100.00
48041;BME280;33815;48.386;11.738;2024-03-06T09:15:01;96613.91;;;7.70;100.00
48041;BME280;33815;48.386;11.738;2024-03-06T09:17:26;96616.97;;;7.54;100.00
48041;BME280;33815;48.386;11.738;2024-03-06T09:19:52;96610.47;;;7.39;100.00
48041;BME280;33815;48.386;11.738;2024-03-06T09:22:17;96622.03;;;7.25;100.00
48041;BME280;33815;48.386;11.738;2024-03-06T09:24:42;96624.03;;;7.43;100.00
48041;BME280;33815;48.386;11.738;2024-03-06T09:27:08;96608.41;;;7.33;100.00
48041;BME280;33815;48.386;11.738;2024-03-06T09:29:33;96615.00;;;7.37;100.00
48041;BME280;33815;48.386;11.738;2024-03-06T09:31:58;96613.25;;;7.47;100.00
48041;BME280;33815;48.386;11.738;2024-03-06T09:34:24;96621.59;;;7.51;100.00
48041;BME280;33815;48.386;11.738;2024-03-06T09:36:49;96614.59;;;7.42;100.00
48041;BME280;33815;48.386;11.738;2024-03-06T09:39:16;96624.03;;;7.43;100.00
48041;BME280;33815;48.386;11.738;2024-03-06T09:41:51;96631.53;;;7.46;100.00
48041;BME280;33815;48.386;11.738;2024-03-06T09:44:17;96625.00;;;7.51;100.00
48041;BME280;33815;48.386;11.738;2024-03-06T09:46:44;96637.25;;;7.40;100.00
48041;BME280;33815;48.386;11.738;2024-03-06T09:49:11;96629.66;;;7.48;100.00
48041;BME280;33815;48.386;11.738;2024-03-06T09:51:38;96613.03;;;7.29;100.00
48041;BME280;33815;48.386;11.738;2024-03-06T09:54:07;96630.94;;;7.32;100.00
48041;BME280;33815;48.386;11.738;2024-03-06T09:56:33;96628.25;;;7.44;100.00
48041;BME280;33815;48.386;11.738;2024-03-06T09:58:58;96617.88;;;7.44;100.00
48041;BME280;33815;48.386;11.738;2024-03-06T10:01:23;96628.31;;;7.53;100.00
48041;BME280;33815;48.386;11.738;2024-03-06T10:03:50;96632.06;;;7.70;100.00
48041;BME280;33815;48.386;11.738;2024-03-06T10:06:16;96646.75;;;7.60;100.00
48041;BME280;33815;48.386;11.738;2024-03-06T10:08:42;96627.16;;;7.36;100.00
48041;BME280;33815;48.386;11.738;2024-03-06T10:11:08;96648.63;;;7.89;100.00
48041;BME280;33815;48.386;11.738;2024-03-06T10:13:34;96643.63;;;7.97;100.00
48041;BME280;33815;48.386;11.738;2024-03-06T10:16:04;96648.75;;;8.28;100.00
48041;BME280;33815;48.386;11.738;2024-03-06T10:18:31;96642.19;;;8.34;100.00
48041;BME280;33815;48.386;11.738;2024-03-06T10:20:58;96648.97;;;8.05;100.00
48041;BME280;33815;48.386;11.738;2024-03-06T10:23:23;96630.47;;;7.89;100.00
48041;BME280;33815;48.386;11.738;2024-03-06T10:25:50;96647.47;;;8.13;100.00
48041;BME280;33815;48.386;11.738;2024-03-06T10:28:22;96647.88;;;8.08;100.00
48041;BME280;33815;48.386;11.738;2024-03-06T10:30:48;96641.53;;;7.81;100.00
48041;BME280;33815;48.386;11.738;2024-03-06T10:33:16;96647.25;;;7.85;100.00
48041;BME280;33815;48.386;11.738;2024-03-06T10:35:45;96648.56;;;7.69;100.00
48041;BME280;33815;48.386;11.738;2024-03-06T10:38:11;96654.66;;;7.99;100.00
48041;BME280;33815;48.386;11.738;2024-03-06T10:40:39;96650.19;;;8.01;100.00
48041;BME280;33815;48.386;11.738;2024-03-06T10:43:05;96659.66;;;8.12;100.00
48041;BME280;33815;48.386;11.738;2024-03-06T10:45:48;96662.22;;;8.02;100.00
48041;BME280;33815;48.386;11.738;2024-03-06T10:48:15;96656.66;;;8.17;100.00
48041;BME280;33815;48.386;11.738;2024-03-06T10:50:42;96641.13;;;7.86;100.00
48041;BME280;33815;48.386;11.738;2024-03-06T10:53:12;96657.78;;;7.83;100.00
48041;BME280;33815;48.386;11.738;2024-03-06T10:55:38;96664.94;;;7.70;100.00
48041;BME280;33815;48.386;11.738;2024-03-06T10:58:08;96651.38;;;7.57;100.00
48041;BME280;33815;48.386;11.738;2024-03-06T11:00:46;96660.31;;;7.43;100.00
48041;BME280;33815;48.386;11.738;2024-03-06T11:03:15;96649.28;;;7.50;100.00
48041;BME280;33815;48.386;11.738;2024-03-06T11:05:42;96664.31;;;7.47;100.00
48041;BME280;33815;48.386;11.738;2024-03-06T11:08:12;96660.06;;;7.46;100.00
48041;BME280;33815;48.386;11.738;2024-03-06T11:10:40;96667.59;;;7.28;100.00
48041;BME280;33815;48.386;11.738;2024-03-06T11:13:24;96663.94;;;6.88;100.00
48041;BME280;33815;48.386;11.738;2024-03-06T11:15:51;96670.81;;;6.78;100.00
48041;BME280;33815;48.386;11.738;2024-03-06T11:23:29;96659.41;;;6.69;100.00
48041;BME280;33815;48.386;11.738;2024-03-06T11:25:56;96672.28;;;6.92;100.00
48041;BME280;33815;48.386;11.738;2024-03-06T11:28:28;96668.47;;;6.75;100.00
48041;BME280;33815;48.386;11.738;2024-03-06T11:33:19;96672.50;;;6.67;100.00
48041;BME280;33815;48.386;11.738;2024-03-06T11:36:16;96670.75;;;6.68;100.00
48041;BME280;33815;48.386;11.738;2024-03-06T11:41:45;96676.84;;;6.99;100.00
48041;BME280;33815;48.386;11.738;2024-03-06T11:44:15;96685.84;;;6.84;100.00
48041;BME280;33815;48.386;11.738;2024-03-06T11:46:41;96689.38;;;6.83;100.00
48041;BME280;33815;48.386;11.738;2024-03-06T11:49:15;96682.38;;;6.74;100.00
48041;BME280;33815;48.386;11.738;2024-03-06T11:51:41;96685.25;;;6.59;100.00
48041;BME280;33815;48.386;11.738;2024-03-06T11:54:07;96683.00;;;6.55;100.00
48041;BME280;33815;48.386;11.738;2024-03-06T11:56:32;96696.19;;;6.63;100.00
48041;BME280;33815;48.386;11.738;2024-03-06T11:58:58;96680.53;;;6.53;100.00
48041;BME280;33815;48.386;11.738;2024-03-06T12:01:23;96697.31;;;6.38;100.00
48041;BME280;33815;48.386;11.738;2024-03-06T12:03:49;96698.03;;;6.17;100.00
48041;BME280;33815;48.386;11.738;2024-03-06T12:06:15;96702.84;;;5.88;100.00
48041;BME280;33815;48.386;11.738;2024-03-06T12:08:41;96705.78;;;5.83;100.00
48041;BME280;33815;48.386;11.738;2024-03-06T12:11:07;96697.66;;;5.76;100.00
48041;BME280;33815;48.386;11.738;2024-03-06T12:13:32;96706.03;;;5.69;100.00
48041;BME280;33815;48.386;11.738;2024-03-06T12:15:58;96698.84;;;5.72;100.00
48041;BME280;33815;48.386;11.738;2024-03-06T12:18:24;96703.44;;;5.80;100.00
48041;BME280;33815;48.386;11.738;2024-03-06T12:20:50;96696.50;;;5.69;100.00
48041;BME280;33815;48.386;11.738;2024-03-06T12:23:24;96707.22;;;5.87;100.00
48041;BME280;33815;48.386;11.738;2024-03-06T12:26:02;96705.78;;;5.94;100.00
48041;BME280;33815;48.386;11.738;2024-03-06T12:28:27;96704.97;;;5.82;100.00
48041;BME280;33815;48.386;11.738;2024-03-06T12:30:52;96708.25;;;5.84;100.00
48041;BME280;33815;48.386;11.738;2024-03-06T12:33:18;96702.28;;;5.84;100.00
48041;BME280;33815;48.386;11.738;2024-03-06T12:35:44;96710.03;;;5.95;100.00
48041;BME280;33815;48.386;11.738;2024-03-06T12:38:14;96686.63;;;5.86;100.00
48041;BME280;33815;48.386;11.738;2024-03-06T12:40:40;96700.19;;;6.00;100.00
48041;BME280;33815;48.386;11.738;2024-03-06T12:43:05;96703.69;;;5.88;100.00
48041;BME280;33815;48.386;11.738;2024-03-06T12:45:31;96700.75;;;6.04;100.00
48041;BME280;33815;48.386;11.738;2024-03-06T12:47:56;96703.78;;;6.32;100.00
48041;BME280;33815;48.386;11.738;2024-03-06T12:50:21;96701.47;;;6.06;100.00
48041;BME280;33815;48.386;11.738;2024-03-06T12:52:47;96707.06;;;6.45;100.00
48041;BME280;33815;48.386;11.738;2024-03-06T12:55:12;96711.16;;;6.48;100.00